ADDS METAR Data INFO
IDs: Format: Raw Decoded Include TAF

Data at: 0319 UTC 20 Jul 2018

KONT 200253Z 25012KT 10SM FEW055 FEW100 27/17 A2993 RMK AO2 SLP120 FU FEW055 CB DSNT N T02720167 53013 $
KONT 200153Z 25010KT 10SM FEW030 FEW100 28/17 A2991 RMK AO2 SLP111 FU FEW030 TCU DSNT NE-E T02830172 $
KONT 200053Z 26015G22KT 10SM FEW020 FEW100 30/17 A2989 RMK AO2 SLP105 FU FEW020 CB DSNT NW TCU DSNT E T03000172 $
KONT 192353Z 25013G20KT 10SM FEW100 FEW150 SCT250 31/18 A2989 RMK AO2 PK WND 26026/2255 LTG DSNT N AND NW SLP105 CB DSNT NW-N RSG FU DSNT S T03060178 10361 20300 56006 $
KONT 192253Z COR 25017G27KT 10SM FEW100 FEW150 SCT250 32/18 A2990 RMK AO2 PK WND 27027/2232 TCU DSNT E AND NW SLP107 T03170183 $
KONT 192153Z 25018G23KT 10SM FEW100 SCT150 SCT250 34/19 A2990 RMK AO2 SLP107 CB DSNT NE TCU DSNT E T03390194 $
KONT 192053Z 26012G20KT 10SM FEW060 FEW100 36/19 A2991 RMK AO2 LTG DSNT NE SLP109 CB DSNT NE AND E TCU DSNT NE T03560194 56019 $
KONT 191953Z 26013KT 10SM FEW060 FEW100 35/19 A2993 RMK AO2 SLP115 CB DSNT NE TCU DSNT E T03500194 $
KONT 191853Z 25007KT 10SM FEW055 FEW100 33/19 A2995 RMK AO2 SLP122 T03330194 $
KONT 191753Z 22005KT 7SM FEW095 30/19 A2997 RMK AO2 SLP131 T03000189 10306 20211 58006 $
KONT 191653Z 23005KT 7SM FEW090 27/18 A2998 RMK AO2 SLP136 T02720183 $
KONT 191553Z 00000KT 6SM HZ FEW090 25/18 A2999 RMK AO2 SLP138 T02500178 $
KONT 191453Z 00000KT 6SM HZ CLR 23/18 A2999 RMK AO2 SLP139 T02280178 51008 $
KONT 191353Z 00000KT 6SM HZ CLR 22/17 A2999 RMK AO2 SLP138 T02170172 $
KONT 191253Z 00000KT 10SM FEW160 FEW250 21/17 A2998 RMK AO2 SLP133 T02110172 $
KONT 191153Z 25007KT 10SM FEW160 SCT250 21/17 A2996 RMK AO2 SLP128 T02110172 10217 20200 55003 $
KONT 191053Z 23007KT 10SM FEW160 SCT250 21/17 A2996 RMK AO2 SLP127 T02060167 $
KONT 190953Z 25007KT 10SM FEW160 SCT250 21/17 A2997 RMK AO2 SLP129 T02060167 $
KONT 190853Z 23007KT 10SM FEW160 SCT250 21/17 A2997 RMK AO2 SLP131 T02060167 58012 $
KONT 190753Z 26007KT 10SM FEW160 SCT250 21/17 A2999 RMK AO2 SLP137 T02110167 403440200 $
KONT 190653Z 24008KT 10SM FEW160 SCT250 21/17 A3000 RMK AO2 SLP144 T02110172 $
KONT 190553Z COR 26008KT 10SM FEW160 SCT250 22/17 A3001 RMK AO2 SLP147 T02170172 10339 20217 51023 $
KONT 190453Z 24012KT 10SM FEW160 SCT250 23/17 A3000 RMK AO2 SLP145 T02280172 $
KONT 190353Z 26012KT 10SM FEW120 SCT160 SCT250 24/18 A2996 RMK AO2 SLP133 T02440178 $
KONT 190253Z 24012KT 10SM FEW120 SCT160 SCT250 27/18 A2994 RMK AO2 SLP122 T02670178 53005 $
KONT 190153Z 26011KT 10SM FEW120 SCT160 BKN250 29/18 A2993 RMK AO2 SLP117 TCU DSNT NE ACC N AND SW-W T02890183 $
KONT 190053Z 25013KT 10SM FEW120 SCT160 BKN250 33/18 A2991 RMK AO2 SLP110 TCU DSNT NE-E AND NW ACC SW-W T03280183 $
KONT 182353Z 24015KT 10SM FEW120 SCT160 BKN250 33/18 A2992 RMK AO2 SLP114 CB DSNT NE TCU DSNT N T03280183 10344 20244 56016 $
KONT 182253Z COR 27012KT 220V310 10SM FEW100 BKN160 BKN250 34/19 A2994 RMK AO2 SLP119 CB DSNT NE AND SE TCU DSNT N AND NW T03440189 $
KONT 182153Z 27010KT 230V290 10SM FEW100 BKN160 BKN250 33/19 A2995 RMK AO2 SLP123 CB DSNT SE TCU DSNT E T03330189 $
KONT 182053Z 26009KT 230V290 10SM FEW095 BKN170 BKN280 32/19 A2997 RMK AO2 SLP131 CB DSNT SE TCU DSNT NE AND NW T03220189 58021 $
KONT 181953Z 24005KT 10SM FEW085 BKN210 BKN280 29/18 A3000 RMK AO2 SLP141 T02940183 $
KONT 181853Z 27006KT 10SM FEW030 FEW110 BKN200 BKN280 27/18 A3002 RMK AO2 SLP151 FU FEW030 TCU DSNT NE T02670183 $
KONT 181753Z 26005KT 10SM FEW110 SCT160 BKN190 BKN280 24/18 A3003 RMK AO2 SLP156 ACC DSNT W-NW T02390178 10244 20206 51018 $
KONT 181653Z 27007KT 9SM SCT160 BKN190 OVC270 24/18 A3003 RMK AO2 SLP154 T02390178 $
KONT 181553Z 18004KT 6SM HZ SCT013 BKN200 BKN270 22/18 A3003 RMK AO2 SLP155 SCT V BKN T02220183 $